Terminal Aerodrome Forecast
Issued by NWS

Home | Current Version | Previous Version | Text Only | Print | Product List | Glossary On
Versions: 1 2 3 4 5 6 7 8 9 10 11 12 13 14 15 16 17 18
000
FTUS46 KMFR 091132
TAFLMT
TAF
KLMT 091132Z 0912/1012 17008KT P6SM VCSH BKN050 OVC120
     FM091800 23012KT P6SM -RA BKN025 OVC035
     FM100300 20008KT P6SM -RASN BKN010 OVC020=

USA.gov is the U.S. government's official web portal to all federal, state and local government web resources and services.